BTK7109 WIII-WIEE
Flight info
| Callsign | BTK7109 |
|---|---|
| Flight time | 1h 23m |
| Altitude | 36000 |
| Route | GUDBA T6 LEBEG |
| Aircraft | B738/M-SDE2E3FGHIRWXY/LB1 |
Departure
| Time | 2026-04-30 09:06 |
|---|---|
| Airport | Soekarno-Hatta International Airport (WIII) |
Arrival
| Time | 2026-04-30 10:29 |
|---|---|
| Airport | Minangkabau International Airport (WIEE) |
| Time | Latitude | Longitude | Altitude | Speed | Heading |
|---|---|---|---|---|---|
| 2026-04-30 08:35 | -6.12401 | 106.64886 | 37 ft | 0 kts | 95° |
| 2026-04-30 08:54 | -6.12400 | 106.64869 | 37 ft | 4 kts | 92° |
| 2026-04-30 08:55 | -6.12400 | 106.64842 | 37 ft | 4 kts | 84° |
| 2026-04-30 08:55 | -6.12405 | 106.64816 | 37 ft | 4 kts | 64° |
| 2026-04-30 08:55 | -6.12418 | 106.64800 | 37 ft | 4 kts | 355° |
| 2026-04-30 08:55 | -6.12426 | 106.64801 | 37 ft | 0 kts | 341° |
| 2026-04-30 08:56 | -6.12427 | 106.64801 | 37 ft | 0 kts | 341° |
| 2026-04-30 09:00 | -6.12417 | 106.64798 | 37 ft | 5 kts | 341° |
| 2026-04-30 09:00 | -6.12357 | 106.64776 | 35 ft | 13 kts | 340° |
| 2026-04-30 09:00 | -6.12269 | 106.64762 | 37 ft | 12 kts | 352° |
| 2026-04-30 09:00 | -6.12191 | 106.64739 | 37 ft | 12 kts | 336° |
| 2026-04-30 09:01 | -6.12117 | 106.64708 | 37 ft | 11 kts | 339° |
| 2026-04-30 09:01 | -6.12045 | 106.64680 | 37 ft | 11 kts | 339° |
| 2026-04-30 09:01 | -6.11986 | 106.64653 | 38 ft | 2 kts | 296° |
| 2026-04-30 09:01 | -6.11987 | 106.64642 | 38 ft | 2 kts | 264° |
| 2026-04-30 09:02 | -6.12027 | 106.64533 | 37 ft | 16 kts | 248° |
| 2026-04-30 09:02 | -6.12076 | 106.64413 | 37 ft | 20 kts | 249° |
| 2026-04-30 09:02 | -6.12126 | 106.64287 | 37 ft | 19 kts | 247° |
| 2026-04-30 09:03 | -6.12175 | 106.64166 | 36 ft | 18 kts | 249° |
| 2026-04-30 09:03 | -6.12222 | 106.64049 | 37 ft | 18 kts | 248° |
| 2026-04-30 09:03 | -6.12253 | 106.63964 | 38 ft | 11 kts | 258° |
| 2026-04-30 09:03 | -6.12231 | 106.63900 | 38 ft | 4 kts | 313° |
| 2026-04-30 09:04 | -6.12211 | 106.63884 | 38 ft | 4 kts | 334° |
| 2026-04-30 09:04 | -6.12164 | 106.63883 | 38 ft | 11 kts | 15° |
| 2026-04-30 09:04 | -6.12097 | 106.63919 | 35 ft | 11 kts | 32° |
| 2026-04-30 09:04 | -6.12063 | 106.63958 | 37 ft | 0 kts | 64° |
| 2026-04-30 09:05 | -6.12060 | 106.63964 | 37 ft | 6 kts | 64° |
| 2026-04-30 09:05 | -6.11959 | 106.64214 | 37 ft | 73 kts | 68° |
| 2026-04-30 09:05 | -6.11689 | 106.64888 | 40 ft | 132 kts | 68° |
| 2026-04-30 09:05 | -6.11302 | 106.65883 | 221 ft | 164 kts | 70° |
| 2026-04-30 09:06 | -6.10922 | 106.66992 | 943 ft | 175 kts | 67° |
| 2026-04-30 09:06 | -6.10361 | 106.68096 | 1802 ft | 183 kts | 45° |
| 2026-04-30 09:06 | -6.09251 | 106.68854 | 2550 ft | 200 kts | 37° |
| 2026-04-30 09:06 | -6.08222 | 106.69764 | 3311 ft | 204 kts | 36° |
| 2026-04-30 09:07 | -6.06799 | 106.70147 | 3478 ft | 230 kts | 352° |
| 2026-04-30 09:07 | -6.05418 | 106.69288 | 3650 ft | 252 kts | 305° |
| 2026-04-30 09:07 | -6.04749 | 106.67595 | 4096 ft | 267 kts | 287° |
| 2026-04-30 09:07 | -6.04163 | 106.65869 | 5027 ft | 255 kts | 291° |
| 2026-04-30 09:08 | -6.03551 | 106.64166 | 5396 ft | 271 kts | 291° |
| 2026-04-30 09:08 | -6.02831 | 106.62368 | 5919 ft | 277 kts | 295° |
| 2026-04-30 09:08 | -6.01966 | 106.60647 | 6886 ft | 276 kts | 297° |
| 2026-04-30 09:08 | -6.01166 | 106.58889 | 7597 ft | 279 kts | 294° |
| 2026-04-30 09:09 | -6.00399 | 106.57119 | 8104 ft | 278 kts | 294° |
| 2026-04-30 09:09 | -5.99615 | 106.55258 | 8347 ft | 304 kts | 292° |
| 2026-04-30 09:09 | -5.98791 | 106.53344 | 9313 ft | 296 kts | 295° |
| 2026-04-30 09:09 | -5.97960 | 106.51464 | 10026 ft | 301 kts | 294° |
| 2026-04-30 09:10 | -5.97050 | 106.49460 | 9916 ft | 333 kts | 293° |
| 2026-04-30 09:10 | -5.96149 | 106.47283 | 10705 ft | 335 kts | 294° |
| 2026-04-30 09:10 | -5.95227 | 106.45122 | 11412 ft | 348 kts | 294° |
| 2026-04-30 09:10 | -5.94265 | 106.42871 | 12019 ft | 354 kts | 293° |
| 2026-04-30 09:11 | -5.93283 | 106.40579 | 12590 ft | 360 kts | 293° |
| 2026-04-30 09:11 | -5.92283 | 106.38255 | 13227 ft | 365 kts | 294° |
| 2026-04-30 09:11 | -5.91266 | 106.35901 | 13913 ft | 369 kts | 294° |
| 2026-04-30 09:11 | -5.90238 | 106.33524 | 14564 ft | 374 kts | 294° |
| 2026-04-30 09:12 | -5.89192 | 106.31112 | 15210 ft | 378 kts | 294° |
| 2026-04-30 09:12 | -5.88136 | 106.28681 | 15863 ft | 382 kts | 294° |
| 2026-04-30 09:12 | -5.87067 | 106.26220 | 16442 ft | 387 kts | 294° |
| 2026-04-30 09:12 | -5.85984 | 106.23724 | 17043 ft | 392 kts | 294° |
| 2026-04-30 09:13 | -5.84890 | 106.21200 | 17625 ft | 396 kts | 295° |
| 2026-04-30 09:13 | -5.83787 | 106.18655 | 18201 ft | 400 kts | 295° |
| 2026-04-30 09:13 | -5.82670 | 106.16080 | 18749 ft | 404 kts | 295° |
| 2026-04-30 09:13 | -5.81545 | 106.13486 | 19305 ft | 407 kts | 295° |
| 2026-04-30 09:14 | -5.80412 | 106.10873 | 19875 ft | 409 kts | 295° |
| 2026-04-30 09:14 | -5.79272 | 106.08246 | 20375 ft | 413 kts | 295° |
| 2026-04-30 09:14 | -5.78130 | 106.05588 | 20890 ft | 416 kts | 294° |
| 2026-04-30 09:14 | -5.76997 | 106.02908 | 21393 ft | 418 kts | 294° |
| 2026-04-30 09:15 | -5.75850 | 106.00208 | 21872 ft | 418 kts | 294° |
| 2026-04-30 09:15 | -5.74690 | 105.97499 | 22215 ft | 425 kts | 294° |
| 2026-04-30 09:15 | -5.73509 | 105.94766 | 22667 ft | 428 kts | 294° |
| 2026-04-30 09:15 | -5.72317 | 105.92027 | 23131 ft | 429 kts | 294° |
| 2026-04-30 09:16 | -5.71113 | 105.89270 | 23555 ft | 432 kts | 294° |
| 2026-04-30 09:16 | -5.69902 | 105.86497 | 23972 ft | 434 kts | 294° |
| 2026-04-30 09:16 | -5.68685 | 105.83711 | 24355 ft | 437 kts | 294° |
| 2026-04-30 09:16 | -5.67456 | 105.80903 | 24698 ft | 440 kts | 295° |
| 2026-04-30 09:17 | -5.66219 | 105.78082 | 25041 ft | 443 kts | 295° |
| 2026-04-30 09:17 | -5.64976 | 105.75241 | 25378 ft | 446 kts | 295° |
| 2026-04-30 09:17 | -5.63743 | 105.72421 | 25724 ft | 448 kts | 295° |
| 2026-04-30 09:17 | -5.62487 | 105.69546 | 26076 ft | 451 kts | 295° |
| 2026-04-30 09:18 | -5.61225 | 105.66664 | 26404 ft | 453 kts | 295° |
| 2026-04-30 09:18 | -5.59957 | 105.63762 | 26739 ft | 455 kts | 295° |
| 2026-04-30 09:18 | -5.58680 | 105.60840 | 27054 ft | 458 kts | 295° |
| 2026-04-30 09:18 | -5.57396 | 105.57906 | 27341 ft | 461 kts | 295° |
| 2026-04-30 09:19 | -5.56007 | 105.55003 | 27653 ft | 462 kts | 301° |
| 2026-04-30 09:19 | -5.54219 | 105.52321 | 27930 ft | 463 kts | 308° |
| 2026-04-30 09:19 | -5.52298 | 105.49724 | 28217 ft | 464 kts | 308° |
| 2026-04-30 09:19 | -5.50351 | 105.47130 | 28473 ft | 467 kts | 308° |
| 2026-04-30 09:20 | -5.48393 | 105.44520 | 28728 ft | 469 kts | 308° |
| 2026-04-30 09:20 | -5.46434 | 105.41890 | 29006 ft | 471 kts | 308° |
| 2026-04-30 09:20 | -5.44474 | 105.39239 | 29274 ft | 473 kts | 308° |
| 2026-04-30 09:20 | -5.42515 | 105.36576 | 29557 ft | 474 kts | 308° |
| 2026-04-30 09:21 | -5.40557 | 105.33902 | 29791 ft | 477 kts | 308° |
| 2026-04-30 09:21 | -5.38595 | 105.31218 | 30029 ft | 479 kts | 308° |
| 2026-04-30 09:21 | -5.36618 | 105.28515 | 30265 ft | 481 kts | 308° |
| 2026-04-30 09:21 | -5.34635 | 105.25807 | 30497 ft | 482 kts | 308° |
| 2026-04-30 09:22 | -5.32645 | 105.23087 | 30744 ft | 484 kts | 308° |
| 2026-04-30 09:22 | -5.30650 | 105.20361 | 31016 ft | 484 kts | 308° |
| 2026-04-30 09:22 | -5.28660 | 105.17643 | 31323 ft | 483 kts | 308° |
| 2026-04-30 09:22 | -5.26671 | 105.14928 | 31650 ft | 482 kts | 308° |
| 2026-04-30 09:23 | -5.24689 | 105.12224 | 32024 ft | 480 kts | 307° |
| 2026-04-30 09:23 | -5.22714 | 105.09530 | 32379 ft | 479 kts | 308° |
| 2026-04-30 09:23 | -5.20741 | 105.06839 | 32710 ft | 478 kts | 307° |
| 2026-04-30 09:23 | -5.18774 | 105.04159 | 33042 ft | 477 kts | 307° |
| 2026-04-30 09:24 | -5.16814 | 105.01484 | 33398 ft | 475 kts | 307° |
| 2026-04-30 09:24 | -5.14860 | 104.98817 | 33742 ft | 474 kts | 307° |
| 2026-04-30 09:24 | -5.12904 | 104.96149 | 34093 ft | 472 kts | 307° |
| 2026-04-30 09:24 | -5.10963 | 104.93502 | 34421 ft | 471 kts | 307° |
| 2026-04-30 09:25 | -5.09044 | 104.90886 | 34724 ft | 471 kts | 307° |
| 2026-04-30 09:25 | -5.07104 | 104.88242 | 35027 ft | 470 kts | 307° |
| 2026-04-30 09:25 | -5.05169 | 104.85603 | 35367 ft | 469 kts | 307° |
| 2026-04-30 09:25 | -5.03238 | 104.82970 | 35669 ft | 468 kts | 307° |
| 2026-04-30 09:26 | -5.01309 | 104.80341 | 35844 ft | 470 kts | 307° |
| 2026-04-30 09:26 | -4.99364 | 104.77690 | 35831 ft | 472 kts | 307° |
| 2026-04-30 09:26 | -4.95485 | 104.72406 | 35827 ft | 468 kts | 307° |
| 2026-04-30 09:27 | -4.92261 | 104.68010 | 35832 ft | 466 kts | 307° |
| 2026-04-30 09:27 | -4.88452 | 104.62827 | 35831 ft | 464 kts | 307° |
| 2026-04-30 09:28 | -4.84638 | 104.57626 | 35831 ft | 462 kts | 307° |
| 2026-04-30 09:28 | -4.80824 | 104.52439 | 35836 ft | 463 kts | 307° |
| 2026-04-30 09:29 | -4.77005 | 104.47238 | 35836 ft | 464 kts | 307° |
| 2026-04-30 09:29 | -4.73152 | 104.41993 | 35972 ft | 471 kts | 307° |
| 2026-04-30 09:30 | -4.71208 | 104.39343 | 36110 ft | 473 kts | 307° |
| 2026-04-30 09:30 | -4.69256 | 104.36682 | 36328 ft | 473 kts | 307° |
| 2026-04-30 09:30 | -4.67305 | 104.34023 | 36585 ft | 473 kts | 307° |
| 2026-04-30 09:30 | -4.65358 | 104.31370 | 36882 ft | 471 kts | 307° |
| 2026-04-30 09:31 | -4.63424 | 104.28734 | 37220 ft | 468 kts | 307° |
| 2026-04-30 09:31 | -4.61501 | 104.26113 | 37586 ft | 465 kts | 307° |
| 2026-04-30 09:31 | -4.59590 | 104.23511 | 37934 ft | 462 kts | 307° |
| 2026-04-30 09:31 | -4.57693 | 104.20926 | 38193 ft | 461 kts | 307° |
| 2026-04-30 09:32 | -4.55787 | 104.18331 | 38354 ft | 462 kts | 307° |
| 2026-04-30 09:32 | -4.53880 | 104.15736 | 38511 ft | 463 kts | 307° |
| 2026-04-30 09:32 | -4.51970 | 104.13137 | 38695 ft | 463 kts | 307° |
| 2026-04-30 09:32 | -4.50064 | 104.10542 | 38903 ft | 462 kts | 307° |
| 2026-04-30 09:33 | -4.48158 | 104.07947 | 39100 ft | 462 kts | 307° |
| 2026-04-30 09:33 | -4.46252 | 104.05355 | 39269 ft | 462 kts | 307° |
| 2026-04-30 09:33 | -4.44348 | 104.02763 | 39429 ft | 462 kts | 307° |
| 2026-04-30 09:33 | -4.42438 | 104.00164 | 39571 ft | 463 kts | 307° |
| 2026-04-30 09:34 | -4.40531 | 103.97567 | 39735 ft | 462 kts | 307° |
| 2026-04-30 09:34 | -4.38625 | 103.94975 | 39838 ft | 463 kts | 307° |
| 2026-04-30 09:34 | -4.34791 | 103.89770 | 39833 ft | 464 kts | 307° |
| 2026-04-30 09:35 | -4.30971 | 103.84574 | 39835 ft | 462 kts | 307° |
| 2026-04-30 09:35 | -4.27167 | 103.79399 | 39838 ft | 460 kts | 307° |
| 2026-04-30 09:36 | -4.23395 | 103.74225 | 39833 ft | 459 kts | 307° |
| 2026-04-30 09:36 | -4.19600 | 103.69094 | 39838 ft | 458 kts | 307° |
| 2026-04-30 09:37 | -4.15813 | 103.63965 | 39826 ft | 458 kts | 307° |
| 2026-04-30 09:37 | -4.12059 | 103.58868 | 39841 ft | 458 kts | 307° |
| 2026-04-30 09:38 | -4.08273 | 103.53724 | 39835 ft | 459 kts | 307° |
| 2026-04-30 09:38 | -4.04479 | 103.48575 | 39832 ft | 460 kts | 307° |
| 2026-04-30 09:39 | -4.00682 | 103.43415 | 39831 ft | 461 kts | 307° |
| 2026-04-30 09:39 | -3.96870 | 103.38237 | 39838 ft | 463 kts | 307° |
| 2026-04-30 09:40 | -3.93040 | 103.33041 | 39835 ft | 464 kts | 307° |
| 2026-04-30 09:40 | -3.89202 | 103.27834 | 39844 ft | 465 kts | 307° |
| 2026-04-30 09:41 | -3.85358 | 103.22612 | 39841 ft | 466 kts | 307° |
| 2026-04-30 09:41 | -3.81505 | 103.17386 | 39828 ft | 467 kts | 307° |
| 2026-04-30 09:42 | -3.77653 | 103.12166 | 39841 ft | 466 kts | 307° |
| 2026-04-30 09:42 | -3.73802 | 103.06944 | 39828 ft | 465 kts | 307° |
| 2026-04-30 09:43 | -3.69960 | 103.01724 | 39826 ft | 466 kts | 307° |
| 2026-04-30 09:43 | -3.66101 | 102.96496 | 39821 ft | 466 kts | 307° |
| 2026-04-30 09:44 | -3.62244 | 102.91272 | 39822 ft | 467 kts | 307° |
| 2026-04-30 09:44 | -3.58387 | 102.86047 | 39823 ft | 466 kts | 307° |
| 2026-04-30 09:45 | -3.54534 | 102.80825 | 39825 ft | 466 kts | 307° |
| 2026-04-30 09:45 | -3.50693 | 102.75617 | 39825 ft | 464 kts | 307° |
| 2026-04-30 09:46 | -3.46857 | 102.70421 | 39828 ft | 464 kts | 307° |
| 2026-04-30 09:46 | -3.43022 | 102.65228 | 39818 ft | 464 kts | 307° |
| 2026-04-30 09:47 | -3.39182 | 102.60031 | 39825 ft | 464 kts | 307° |
| 2026-04-30 09:47 | -3.35355 | 102.54844 | 39807 ft | 464 kts | 307° |
| 2026-04-30 09:48 | -3.31519 | 102.49651 | 39835 ft | 464 kts | 307° |
| 2026-04-30 09:48 | -3.27677 | 102.44454 | 39829 ft | 465 kts | 307° |
| 2026-04-30 09:49 | -3.23831 | 102.39248 | 39835 ft | 465 kts | 307° |
| 2026-04-30 09:49 | -3.20006 | 102.34071 | 39831 ft | 466 kts | 307° |
| 2026-04-30 09:50 | -3.16125 | 102.28822 | 39827 ft | 466 kts | 307° |
| 2026-04-30 09:50 | -3.12288 | 102.23637 | 39819 ft | 467 kts | 307° |
| 2026-04-30 09:51 | -3.08428 | 102.18410 | 39822 ft | 467 kts | 307° |
| 2026-04-30 09:51 | -3.04559 | 102.13175 | 39832 ft | 468 kts | 307° |
| 2026-04-30 09:52 | -3.00690 | 102.07943 | 39824 ft | 468 kts | 307° |
| 2026-04-30 09:52 | -2.96818 | 102.02702 | 39833 ft | 468 kts | 307° |
| 2026-04-30 09:53 | -2.92947 | 101.97475 | 39823 ft | 468 kts | 307° |
| 2026-04-30 09:53 | -2.89075 | 101.92244 | 39825 ft | 468 kts | 307° |
| 2026-04-30 09:54 | -2.85210 | 101.87018 | 39836 ft | 467 kts | 307° |
| 2026-04-30 09:54 | -2.81338 | 101.81789 | 39816 ft | 467 kts | 307° |
| 2026-04-30 09:55 | -2.77469 | 101.76559 | 39831 ft | 467 kts | 307° |
| 2026-04-30 09:55 | -2.73604 | 101.71334 | 39816 ft | 466 kts | 307° |
| 2026-04-30 09:56 | -2.69743 | 101.66120 | 39809 ft | 466 kts | 307° |
| 2026-04-30 09:56 | -2.65916 | 101.60948 | 39806 ft | 465 kts | 307° |
| 2026-04-30 09:57 | -2.62070 | 101.55761 | 39821 ft | 464 kts | 307° |
| 2026-04-30 09:57 | -2.58209 | 101.50566 | 39822 ft | 465 kts | 307° |
| 2026-04-30 09:58 | -2.54351 | 101.45381 | 39813 ft | 465 kts | 307° |
| 2026-04-30 09:58 | -2.50474 | 101.40170 | 39812 ft | 467 kts | 307° |
| 2026-04-30 09:59 | -2.42713 | 101.29726 | 39805 ft | 468 kts | 307° |
| 2026-04-30 10:00 | -2.36880 | 101.21878 | 39806 ft | 469 kts | 307° |
| 2026-04-30 10:01 | -2.32990 | 101.16631 | 39540 ft | 473 kts | 307° |
| 2026-04-30 10:01 | -2.31022 | 101.13969 | 39009 ft | 475 kts | 307° |
| 2026-04-30 10:01 | -2.29089 | 101.11353 | 38436 ft | 473 kts | 307° |
| 2026-04-30 10:02 | -2.25183 | 101.06072 | 37232 ft | 471 kts | 307° |
| 2026-04-30 10:02 | -2.23235 | 101.03438 | 36664 ft | 470 kts | 307° |
| 2026-04-30 10:02 | -2.21305 | 101.00830 | 36180 ft | 466 kts | 307° |
| 2026-04-30 10:02 | -2.19381 | 100.98230 | 35548 ft | 465 kts | 307° |
| 2026-04-30 10:03 | -2.17453 | 100.95626 | 34855 ft | 467 kts | 307° |
| 2026-04-30 10:03 | -2.15517 | 100.93011 | 34141 ft | 469 kts | 307° |
| 2026-04-30 10:03 | -2.13575 | 100.90390 | 33513 ft | 468 kts | 307° |
| 2026-04-30 10:03 | -2.11647 | 100.87788 | 33006 ft | 464 kts | 307° |
| 2026-04-30 10:04 | -2.09736 | 100.85202 | 32495 ft | 461 kts | 307° |
| 2026-04-30 10:04 | -2.07831 | 100.82625 | 31971 ft | 458 kts | 307° |
| 2026-04-30 10:04 | -2.05944 | 100.80077 | 31467 ft | 455 kts | 307° |
| 2026-04-30 10:04 | -2.04066 | 100.77540 | 30963 ft | 452 kts | 307° |
| 2026-04-30 10:05 | -2.02206 | 100.75028 | 30468 ft | 448 kts | 307° |
| 2026-04-30 10:05 | -2.00360 | 100.72534 | 29973 ft | 444 kts | 307° |
| 2026-04-30 10:05 | -1.98528 | 100.70061 | 29486 ft | 441 kts | 307° |
| 2026-04-30 10:05 | -1.96709 | 100.67604 | 28982 ft | 438 kts | 307° |
| 2026-04-30 10:06 | -1.94903 | 100.65164 | 28476 ft | 435 kts | 307° |
| 2026-04-30 10:06 | -1.93110 | 100.62744 | 27977 ft | 432 kts | 307° |
| 2026-04-30 10:06 | -1.91329 | 100.60338 | 27469 ft | 428 kts | 308° |
| 2026-04-30 10:06 | -1.89563 | 100.57957 | 26991 ft | 425 kts | 309° |
| 2026-04-30 10:07 | -1.87520 | 100.55860 | 26466 ft | 420 kts | 327° |
| 2026-04-30 10:07 | -1.85081 | 100.54283 | 26027 ft | 415 kts | 329° |
| 2026-04-30 10:07 | -1.82652 | 100.52744 | 25534 ft | 412 kts | 329° |
| 2026-04-30 10:07 | -1.80247 | 100.51212 | 25063 ft | 409 kts | 329° |
| 2026-04-30 10:08 | -1.77869 | 100.49646 | 24579 ft | 408 kts | 327° |
| 2026-04-30 10:08 | -1.75530 | 100.48054 | 24093 ft | 408 kts | 330° |
| 2026-04-30 10:08 | -1.73130 | 100.46558 | 23618 ft | 405 kts | 330° |
| 2026-04-30 10:08 | -1.70743 | 100.45057 | 23150 ft | 404 kts | 330° |
| 2026-04-30 10:09 | -1.68387 | 100.43520 | 22668 ft | 403 kts | 329° |
| 2026-04-30 10:09 | -1.66056 | 100.41992 | 22201 ft | 399 kts | 329° |
| 2026-04-30 10:09 | -1.63741 | 100.40475 | 21735 ft | 397 kts | 329° |
| 2026-04-30 10:09 | -1.61443 | 100.38970 | 21269 ft | 394 kts | 328° |
| 2026-04-30 10:10 | -1.59161 | 100.37476 | 20801 ft | 390 kts | 329° |
| 2026-04-30 10:10 | -1.56896 | 100.35994 | 20343 ft | 387 kts | 328° |
| 2026-04-30 10:10 | -1.55409 | 100.35019 | 20042 ft | 385 kts | 328° |
| 2026-04-30 10:10 | -1.53172 | 100.33579 | 19586 ft | 382 kts | 328° |
| 2026-04-30 10:11 | -1.50944 | 100.32163 | 19125 ft | 376 kts | 328° |
| 2026-04-30 10:11 | -1.48768 | 100.30729 | 18685 ft | 374 kts | 328° |
| 2026-04-30 10:11 | -1.46610 | 100.29300 | 18242 ft | 371 kts | 328° |
| 2026-04-30 10:11 | -1.44464 | 100.27883 | 17794 ft | 369 kts | 328° |
| 2026-04-30 10:12 | -1.42329 | 100.26479 | 17352 ft | 365 kts | 328° |
| 2026-04-30 10:12 | -1.40213 | 100.25090 | 16914 ft | 363 kts | 328° |
| 2026-04-30 10:12 | -1.38108 | 100.23713 | 16473 ft | 360 kts | 328° |
| 2026-04-30 10:12 | -1.36017 | 100.22347 | 16039 ft | 358 kts | 328° |
| 2026-04-30 10:13 | -1.33942 | 100.20991 | 15605 ft | 355 kts | 328° |
| 2026-04-30 10:13 | -1.31890 | 100.19650 | 15174 ft | 351 kts | 328° |
| 2026-04-30 10:13 | -1.29853 | 100.18319 | 14748 ft | 349 kts | 328° |
| 2026-04-30 10:13 | -1.27837 | 100.17000 | 14323 ft | 345 kts | 328° |
| 2026-04-30 10:14 | -1.25831 | 100.15689 | 13899 ft | 343 kts | 328° |
| 2026-04-30 10:14 | -1.23843 | 100.14390 | 13481 ft | 341 kts | 328° |
| 2026-04-30 10:14 | -1.19900 | 100.11822 | 12645 ft | 336 kts | 329° |
| 2026-04-30 10:15 | -1.17838 | 100.10726 | 12151 ft | 335 kts | 336° |
| 2026-04-30 10:15 | -1.15719 | 100.09778 | 11726 ft | 333 kts | 338° |
| 2026-04-30 10:15 | -1.13611 | 100.08831 | 11303 ft | 331 kts | 336° |
| 2026-04-30 10:15 | -1.11528 | 100.07868 | 10882 ft | 329 kts | 336° |
| 2026-04-30 10:16 | -1.09465 | 100.06898 | 10469 ft | 326 kts | 335° |
| 2026-04-30 10:16 | -1.07434 | 100.05927 | 10236 ft | 318 kts | 335° |
| 2026-04-30 10:16 | -1.05475 | 100.04985 | 10110 ft | 307 kts | 335° |
| 2026-04-30 10:17 | -1.01790 | 100.03215 | 10025 ft | 283 kts | 335° |
| 2026-04-30 10:17 | -0.98290 | 100.01541 | 9508 ft | 276 kts | 335° |
| 2026-04-30 10:17 | -0.96564 | 100.00718 | 9229 ft | 274 kts | 335° |
| 2026-04-30 10:18 | -0.94840 | 99.99895 | 8946 ft | 273 kts | 335° |
| 2026-04-30 10:18 | -0.93132 | 99.99079 | 8652 ft | 271 kts | 335° |
| 2026-04-30 10:18 | -0.91433 | 99.98270 | 8363 ft | 270 kts | 334° |
| 2026-04-30 10:19 | -0.88053 | 99.96653 | 7781 ft | 268 kts | 334° |
| 2026-04-30 10:19 | -0.86373 | 99.95850 | 7498 ft | 267 kts | 335° |
| 2026-04-30 10:19 | -0.84695 | 99.95046 | 7208 ft | 268 kts | 334° |
| 2026-04-30 10:19 | -0.83020 | 99.94247 | 6921 ft | 267 kts | 335° |
| 2026-04-30 10:20 | -0.81351 | 99.93445 | 6622 ft | 264 kts | 334° |
| 2026-04-30 10:20 | -0.77910 | 99.92616 | 6049 ft | 258 kts | 13° |
| 2026-04-30 10:20 | -0.76329 | 99.93380 | 5865 ft | 256 kts | 39° |
| 2026-04-30 10:21 | -0.75184 | 99.94752 | 5702 ft | 263 kts | 60° |
| 2026-04-30 10:21 | -0.74354 | 99.96400 | 5534 ft | 268 kts | 64° |
| 2026-04-30 10:21 | -0.73555 | 99.98088 | 5313 ft | 269 kts | 64° |
| 2026-04-30 10:21 | -0.72745 | 99.99790 | 5120 ft | 271 kts | 64° |
| 2026-04-30 10:22 | -0.71945 | 100.01478 | 4924 ft | 267 kts | 63° |
| 2026-04-30 10:22 | -0.71153 | 100.03133 | 4738 ft | 262 kts | 63° |
| 2026-04-30 10:22 | -0.70359 | 100.04760 | 4549 ft | 260 kts | 63° |
| 2026-04-30 10:22 | -0.69568 | 100.06374 | 4355 ft | 259 kts | 63° |
| 2026-04-30 10:23 | -0.68781 | 100.07982 | 4182 ft | 257 kts | 63° |
| 2026-04-30 10:23 | -0.67999 | 100.09580 | 4003 ft | 255 kts | 63° |
| 2026-04-30 10:23 | -0.67214 | 100.11159 | 3792 ft | 251 kts | 62° |
| 2026-04-30 10:23 | -0.66438 | 100.12710 | 3565 ft | 248 kts | 62° |
| 2026-04-30 10:24 | -0.65670 | 100.14244 | 3354 ft | 246 kts | 62° |
| 2026-04-30 10:24 | -0.64911 | 100.15763 | 3143 ft | 242 kts | 62° |
| 2026-04-30 10:24 | -0.64170 | 100.17241 | 2928 ft | 232 kts | 62° |
| 2026-04-30 10:24 | -0.63567 | 100.18692 | 2733 ft | 222 kts | 79° |
| 2026-04-30 10:25 | -0.63730 | 100.20165 | 2541 ft | 210 kts | 111° |
| 2026-04-30 10:25 | -0.64524 | 100.21342 | 2359 ft | 201 kts | 136° |
| 2026-04-30 10:25 | -0.65669 | 100.22080 | 2205 ft | 191 kts | 153° |
| 2026-04-30 10:25 | -0.66849 | 100.22630 | 2056 ft | 182 kts | 154° |
| 2026-04-30 10:26 | -0.67967 | 100.23143 | 1890 ft | 171 kts | 154° |
| 2026-04-30 10:26 | -0.68997 | 100.23616 | 1743 ft | 155 kts | 154° |
| 2026-04-30 10:26 | -0.69961 | 100.24055 | 1582 ft | 154 kts | 156° |
| 2026-04-30 10:26 | -0.70940 | 100.24505 | 1387 ft | 153 kts | 156° |
| 2026-04-30 10:27 | -0.71893 | 100.24946 | 1188 ft | 149 kts | 157° |
| 2026-04-30 10:27 | -0.72827 | 100.25377 | 994 ft | 147 kts | 156° |
| 2026-04-30 10:27 | -0.73744 | 100.25807 | 803 ft | 148 kts | 156° |
| 2026-04-30 10:27 | -0.74691 | 100.26241 | 678 ft | 146 kts | 157° |
| 2026-04-30 10:28 | -0.75610 | 100.26672 | 469 ft | 149 kts | 156° |
| 2026-04-30 10:28 | -0.76565 | 100.27109 | 303 ft | 150 kts | 158° |
| 2026-04-30 10:28 | -0.77504 | 100.27529 | 48 ft | 146 kts | 157° |
| 2026-04-30 10:28 | -0.78359 | 100.27928 | 28 ft | 124 kts | 156° |
| 2026-04-30 10:29 | -0.78938 | 100.28200 | 32 ft | 63 kts | 152° |
| 2026-04-30 10:29 | -0.79293 | 100.28360 | 28 ft | 54 kts | 155° |
| 2026-04-30 10:29 | -0.79604 | 100.28502 | 28 ft | 44 kts | 156° |
| 2026-04-30 10:29 | -0.79743 | 100.28584 | 29 ft | 14 kts | 130° |
| 2026-04-30 10:30 | -0.79792 | 100.28617 | 29 ft | 8 kts | 203° |
| 2026-04-30 10:30 | -0.79777 | 100.28581 | 29 ft | 7 kts | 334° |
| 2026-04-30 10:30 | -0.79724 | 100.28560 | 29 ft | 10 kts | 336° |
| 2026-04-30 10:30 | -0.79621 | 100.28512 | 28 ft | 22 kts | 334° |
| 2026-04-30 10:31 | -0.79475 | 100.28442 | 26 ft | 24 kts | 338° |
| 2026-04-30 10:31 | -0.79329 | 100.28378 | 28 ft | 23 kts | 334° |
| 2026-04-30 10:31 | -0.79189 | 100.28311 | 28 ft | 22 kts | 334° |
| 2026-04-30 10:31 | -0.79072 | 100.28255 | 29 ft | 14 kts | 337° |
| 2026-04-30 10:32 | -0.78986 | 100.28265 | 31 ft | 14 kts | 52° |
| 2026-04-30 10:32 | -0.78939 | 100.28359 | 27 ft | 17 kts | 65° |
| 2026-04-30 10:32 | -0.78894 | 100.28452 | 24 ft | 11 kts | 61° |
| 2026-04-30 10:32 | -0.78830 | 100.28475 | 23 ft | 11 kts | 344° |
| 2026-04-30 10:33 | -0.78758 | 100.28441 | 25 ft | 12 kts | 334° |
| 2026-04-30 10:33 | -0.78698 | 100.28413 | 23 ft | 6 kts | 334° |
| 2026-04-30 10:33 | -0.78662 | 100.28424 | 23 ft | 7 kts | 59° |
| 2026-04-30 10:33 | -0.78640 | 100.28468 | 23 ft | 5 kts | 65° |
| 2026-04-30 10:34 | -0.78633 | 100.28484 | 23 ft | 0 kts | 65° |
| 2026-04-30 10:34 | -0.78630 | 100.28490 | 23 ft | 0 kts | 65° |